Frenchville, PA (16836)

2:09 AM EST on February 07, 2016 (GMT -0500)
Woodland | | Change Station
CLOSE
Current Station
Personal Weather Station
Location: Woodland, PA
Elevation: 1765 ft
Nearby Weather Stations

Elev 1765 ft 41.01 °N, 78.35 °W | Updated 8 minutes ago

Clear
Clear
26.8 °F
Feels Like 22 °F
N
3.7
Wind Variable Wind from West

Today
High -- | Low -- °F
--% Chance of Precip.
Yesterday
High -- | Low -- °F
Precip. -- in
Pressure 30.20 in
Visibility 10.0 miles
Clouds Clear
Windchill 22 °F
Dew Point 16 °F
Humidity 62%
Rainfall 0.00 in
Snow Depth Not available.
7:18 AM 5:36 PM
Waning Crescent, 2% visible
METAR KFIG 070654Z AUTO 00000KT 10SM CLR M04/M08 A3015 RMK AO2 SLP225 T10441078
Pressure 30.20 in
Visibility 10.0 miles
Clouds Clear
Windchill 22 °F
Dew Point 16 °F
Humidity 62%
Rainfall 0.00 in
Snow Depth Not available.
7:18 AM 5:36 PM
Waning Crescent, 2% visible
METAR KFIG 070654Z AUTO 00000KT 10SM CLR M04/M08 A3015 RMK AO2 SLP225 T10441078

10-Day Weather Forecast

Almanac

Astronomy

Feb. 07, 2016 Rise Set
Actual Time
Civil Twilight
Nautical Twilight
Astronomical Twilight
Moon
Length of Visible Light
Length of Day
Tomorrow will be .
, % of the Moon is Illuminated

Today's Extremes

State Highs State Lows

Community

WunderPhotos

Upload Photos

1,891,174 photos uploaded!

WunderBlog® & News

Nearby

Air Quality

  Air Quality AQ Index Pollutant
Not available.

Snow Depth

Station Depth Elevation

Earthquake Activity

City Distance Mag. Time & Date
Minimum magnitude displayed is 2.5.

Coastal Water Temperatures

Place Temperature

Stations

Nearby Weather Stations

Station Location Temp. Windchill Dew Point Humidity Wind Precip. Elev Updated Type
                   

Watches & Warnings

There are currently no watches in effect.